Time;durP1;ratioP1;P1;durP2;ratioP2;P2;SDS_P1;SDS_P2;PMS_P1;PMS_P2;Temp;Humidity;BMP_temperature;BMP_pressure;BME280_temperature;BME280_humidity;BME280_pressure;Samples;Min_cycle;Max_cycle;Signal;HPM_P1;HPM_P2
2021/12/24 00:02:13;;;;;;;;;;;;;;;;;;5113870;28;20032;-78
2021/12/24 00:04:40;;;;;;;;;;;;;;;;;;5114626;28;19987;-78
2021/12/24 00:07:07;;;;;;;;;;;;;;;;;;5114447;28;20041;-78
2021/12/24 00:09:36;;;;;;;;;;;;;;;;;;5114129;28;20438;-78
2021/12/24 00:12:10;;;;;;;;;;;;;;;;;;5114230;28;20010;-78
2021/12/24 00:14:41;;;;;;;;;;;;;;;;;;5114519;28;19959;-78
2021/12/24 00:17:08;;;;;;;;;;;;;;;;;;5113948;28;19945;-77
2021/12/24 00:19:43;;;;;;;;;;;;;;;;;;5114598;28;19954;-78
2021/12/24 00:22:29;;;;;;;;;;;;;;;;;;5113647;28;20052;-78
2021/12/24 00:35:54;;;;;;;;;;;;;;;;;;5113986;28;19942;-78
2021/12/24 00:38:22;;;;;;;;;;;;;;;;;;5114295;28;19947;-78
2021/12/24 00:40:49;;;;;;;;;;;;;;;;;;5113525;28;19950;-78
2021/12/24 00:43:16;;;;;;;;;;;;;;;;;;5113993;28;20072;-78
2021/12/24 00:45:43;;;;;;;;;;;;;;;;;;5113226;28;19944;-78
2021/12/24 00:48:10;;;;;;;;;;;;;;;;;;5113161;28;20468;-78
2021/12/24 00:50:48;;;;;;;;;;;;;;;;;;5113954;28;20038;-78
2021/12/24 00:55:56;;;;;;;;;;;;;;;;;;5112414;28;19998;-78
2021/12/24 00:58:23;;;;;;;;;;;;;;;;;;5113980;28;20391;-78
2021/12/24 01:00:50;;;;;;;;;;;;;;;;;;5113578;28;20404;-78
2021/12/24 01:03:16;;;;;;;;;;;;;;;;;;5113659;28;20046;-78
2021/12/24 01:05:43;;;;;;;;;;;;;;;;;;5113976;28;20003;-78
2021/12/24 01:08:10;;;;;;;;;;;;;;;;;;5113462;28;20042;-78
2021/12/24 01:10:37;;;;;;;;;;;;;;;;;;5113470;28;20049;-78
2021/12/24 01:13:04;;;;;;;;;;;;;;;;;;5113778;28;20072;-78
2021/12/24 01:15:33;;;;;;;;;;;;;;;;;;5113479;28;20451;-79
2021/12/24 01:18:07;;;;;;;;;;;;;;;;;;5113529;28;19923;-79
2021/12/24 01:20:42;;;;;;;;;;;;;;;;;;5113322;28;20450;-78
2021/12/24 01:25:53;;;;;;;;;;;;;;;;;;5113770;28;20022;-78
2021/12/24 01:39:23;;;;;;;;;;;;;;;;;;5113522;28;19931;-78
2021/12/24 01:44:35;;;;;;;;;;;;;;;;;;5094583;28;20456;-78
2021/12/24 01:47:02;;;;;;;;;;;;;;;;;;5109901;28;19941;-79
2021/12/24 01:49:29;;;;;;;;;;;;;;;;;;5112762;28;19985;-79
2021/12/24 01:51:56;;;;;;;;;;;;;;;;;;5113417;28;19955;-78
2021/12/24 01:54:23;;;;;;;;;;;;;;;;;;5113144;28;20369;-79
2021/12/24 01:56:50;;;;;;;;;;;;;;;;;;5113263;28;20041;-78
2021/12/24 01:59:17;;;;;;;;;;;;;;;;;;5116946;28;20031;-78
2021/12/24 02:01:44;;;;;;;;;;;;;;;;;;5116360;28;20032;-78
2021/12/24 02:04:13;;;;;;;;;;;;;;;;;;5116498;28;20383;-78
2021/12/24 02:06:40;;;;;;;;;;;;;;;;;;5116961;28;20419;-77
2021/12/24 02:09:07;;;;;;;;;;;;;;;;;;5116358;28;20040;-78
2021/12/24 02:11:37;;;;;;;;;;;;;;;;;;5116636;28;20042;-78
2021/12/24 02:14:04;;;;;;;;;;;;;;;;;;5116927;28;20450;-78
2021/12/24 02:16:44;;;;;;;;;;;;;;;;;;5116769;28;19946;-78
2021/12/24 02:30:09;;;;;;;;;;;;;;;;;;5116341;28;20290;-78
2021/12/24 02:32:36;;;;;;;;;;;;;;;;;;5115994;28;20036;-78
2021/12/24 02:35:03;;;;;;;;;;;;;;;;;;5116661;28;20041;-78
2021/12/24 02:37:30;;;;;;;;;;;;;;;;;;5116094;28;19994;-78
2021/12/24 02:39:57;;;;;;;;;;;;;;;;;;5116412;28;19955;-77
2021/12/24 02:42:24;;;;;;;;;;;;;;;;;;5115873;28;20405;-78
2021/12/24 02:44:51;;;;;;;;;;;;;;;;;;5116324;28;20063;-78
2021/12/24 02:47:39;;;;;;;;;;;;;;;;;;5115969;28;20032;-78
2021/12/24 02:55:43;;;;;;;;;;;;;;;;;;5093437;28;19945;-78
2021/12/24 02:58:11;;;;;;;;;;;;;;;;;;5116020;28;20495;-78
2021/12/24 03:00:38;;;;;;;;;;;;;;;;;;5115592;28;19948;-79
2021/12/24 03:03:05;;;;;;;;;;;;;;;;;;5115340;28;20063;-78
2021/12/24 03:05:32;;;;;;;;;;;;;;;;;;5115870;28;20044;-78
2021/12/24 03:07:59;;;;;;;;;;;;;;;;;;5115369;28;20396;-78
2021/12/24 03:10:26;;;;;;;;;;;;;;;;;;5114747;28;20037;-78
2021/12/24 03:12:53;;;;;;;;;;;;;;;;;;5115554;28;20071;-78
2021/12/24 03:15:21;;;;;;;;;;;;;;;;;;5115371;28;19959;-78
2021/12/24 03:17:52;;;;;;;;;;;;;;;;;;5115734;28;19966;-78
2021/12/24 03:20:19;;;;;;;;;;;;;;;;;;5115366;28;19953;-78
2021/12/24 03:22:52;;;;;;;;;;;;;;;;;;5115753;28;19952;-78
2021/12/24 03:25:19;;;;;;;;;;;;;;;;;;5115254;28;19989;-78
2021/12/24 03:27:46;;;;;;;;;;;;;;;;;;5114248;28;20037;-78
2021/12/24 03:30:13;;;;;;;;;;;;;;;;;;5115127;28;20025;-78
2021/12/24 03:32:40;;;;;;;;;;;;;;;;;;5095244;28;20035;-78
2021/12/24 03:35:07;;;;;;;;;;;;;;;;;;5104178;28;20041;-78
2021/12/24 03:37:34;;;;;;;;;;;;;;;;;;5114620;28;20364;-78
2021/12/24 03:40:01;;;;;;;;;;;;;;;;;;5115405;28;20035;-78
2021/12/24 03:42:27;;;;;;;;;;;;;;;;;;5114848;28;20053;-78
2021/12/24 03:45:04;;;;;;;;;;;;;;;;;;5115020;28;20467;-78
2021/12/24 03:47:36;;;;;;;;;;;;;;;;;;5114839;28;20354;-78
2021/12/24 03:50:07;;;;;;;;;;;;;;;;;;5114974;28;19942;-78
2021/12/24 03:52:51;;;;;;;;;;;;;;;;;;5115136;28;19954;-78
2021/12/24 03:55:17;;;;;;;;;;;;;;;;;;5114434;28;19940;-78
2021/12/24 03:57:44;;;;;;;;;;;;;;;;;;5115049;28;20035;-78
2021/12/24 04:00:11;;;;;;;;;;;;;;;;;;5114458;28;20412;-78
2021/12/24 04:02:38;;;;;;;;;;;;;;;;;;5114724;28;20025;-78
2021/12/24 04:05:05;;;;;;;;;;;;;;;;;;5113902;28;19955;-78
2021/12/24 04:07:32;;;;;;;;;;;;;;;;;;5114703;28;20355;-78
2021/12/24 04:10:02;;;;;;;;;;;;;;;;;;5114352;28;20036;-78
2021/12/24 04:12:29;;;;;;;;;;;;;;;;;;5114357;28;19971;-78
2021/12/24 04:14:56;;;;;;;;;;;;;;;;;;5114361;28;20064;-79
2021/12/24 04:17:23;;;;;;;;;;;;;;;;;;5114415;28;20055;-78
2021/12/24 04:25:20;;;;;;;;;;;;;;;;;;5114124;28;20488;-79
2021/12/24 04:27:47;;;;;;;;;;;;;;;;;;5114361;28;20002;-78
2021/12/24 04:30:17;;;;;;;;;;;;;;;;;;5113751;28;19951;-78
2021/12/24 04:35:42;;;;;;;;;;;;;;;;;;5113695;28;19948;-78
2021/12/24 04:51:53;;;;;;;;;;;;;;;;;;5113418;28;19940;-78
2021/12/24 05:02:48;;;;;;;;;;;;;;;;;;5113858;28;20302;-79
2021/12/24 05:05:21;;;;;;;;;;;;;;;;;;5113747;28;19958;-79
2021/12/24 05:10:37;;;;;;;;;;;;;;;;;;5109016;28;20038;-77
2021/12/24 05:13:05;;;;;;;;;;;;;;;;;;5113244;28;19971;-78
2021/12/24 05:15:34;;;;;;;;;;;;;;;;;;5113877;28;19960;-78
2021/12/24 05:18:13;;;;;;;;;;;;;;;;;;5113318;28;20398;-78
2021/12/24 05:23:24;;;;;;;;;;;;;;;;;;5112546;28;19961;-78
2021/12/24 05:25:51;;;;;;;;;;;;;;;;;;5113406;28;20030;-77
2021/12/24 05:28:18;;;;;;;;;;;;;;;;;;5113687;28;20449;-78
2021/12/24 05:30:45;;;;;;;;;;;;;;;;;;5113067;28;19949;-78
2021/12/24 05:33:14;;;;;;;;;;;;;;;;;;5115465;28;20007;-79
2021/12/24 05:35:41;;;;;;;;;;;;;;;;;;5117237;28;20352;-78
2021/12/24 05:38:08;;;;;;;;;;;;;;;;;;5117693;28;20026;-78
2021/12/24 05:40:35;;;;;;;;;;;;;;;;;;5116828;28;20022;-78
2021/12/24 05:43:02;;;;;;;;;;;;;;;;;;5117295;28;20039;-78
2021/12/24 05:45:29;;;;;;;;;;;;;;;;;;5117017;28;20404;-78
2021/12/24 05:47:56;;;;;;;;;;;;;;;;;;5117555;28;20006;-78
2021/12/24 05:50:23;;;;;;;;;;;;;;;;;;5116642;28;19951;-78
2021/12/24 05:52:50;;;;;;;;;;;;;;;;;;5116975;28;20394;-78
2021/12/24 05:55:17;;;;;;;;;;;;;;;;;;5116879;28;20032;-77
2021/12/24 05:57:44;;;;;;;;;;;;;;;;;;5117188;28;20038;-78
2021/12/24 06:00:11;;;;;;;;;;;;;;;;;;5116904;28;19998;-79
2021/12/24 06:02:38;;;;;;;;;;;;;;;;;;5117071;28;20031;-79
2021/12/24 06:05:05;;;;;;;;;;;;;;;;;;5116845;28;20055;-79
2021/12/24 06:07:32;;;;;;;;;;;;;;;;;;5116461;28;20478;-78
2021/12/24 06:09:59;;;;;;;;;;;;;;;;;;5117079;28;20055;-78
2021/12/24 06:12:26;;;;;;;;;;;;;;;;;;5116370;28;20051;-78
2021/12/24 06:15:00;;;;;;;;;;;;;;;;;;5116927;28;20049;-78
2021/12/24 06:17:27;;;;;;;;;;;;;;;;;;5116787;28;19961;-78
2021/12/24 06:19:54;;;;;;;;;;;;;;;;;;5116385;28;20061;-78
2021/12/24 06:22:21;;;;;;;;;;;;;;;;;;5116364;28;19982;-78
2021/12/24 06:24:48;;;;;;;;;;;;;;;;;;5116644;28;20051;-79
2021/12/24 06:27:15;;;;;;;;;;;;;;;;;;5116102;28;20041;-79
2021/12/24 06:29:42;;;;;;;;;;;;;;;;;;5116487;28;20039;-78
2021/12/24 06:32:09;;;;;;;;;;;;;;;;;;5116456;28;20034;-78
2021/12/24 06:34:36;;;;;;;;;;;;;;;;;;5115763;28;20050;-79
2021/12/24 06:37:03;;;;;;;;;;;;;;;;;;5115916;28;20037;-78
2021/12/24 06:39:30;;;;;;;;;;;;;;;;;;5116461;28;20400;-78
2021/12/24 06:41:57;;;;;;;;;;;;;;;;;;5116316;28;20041;-78
2021/12/24 06:44:25;;;;;;;;;;;;;;;;;;5115615;28;20049;-78
2021/12/24 06:46:52;;;;;;;;;;;;;;;;;;5116283;28;20048;-78
2021/12/24 06:49:19;;;;;;;;;;;;;;;;;;5116119;28;20060;-78
2021/12/24 06:51:46;;;;;;;;;;;;;;;;;;5116092;28;20413;-77
2021/12/24 06:54:13;;;;;;;;;;;;;;;;;;5115875;28;20038;-79
2021/12/24 06:56:40;;;;;;;;;;;;;;;;;;5116098;28;19952;-78
2021/12/24 06:59:07;;;;;;;;;;;;;;;;;;5115180;28;20023;-78
2021/12/24 07:01:34;;;;;;;;;;;;;;;;;;5115502;28;20032;-78
2021/12/24 07:04:01;;;;;;;;;;;;;;;;;;5115750;28;20507;-77
2021/12/24 07:06:29;;;;;;;;;;;;;;;;;;5115903;28;19977;-77
2021/12/24 07:08:56;;;;;;;;;;;;;;;;;;5115750;28;19951;-78
2021/12/24 07:11:24;;;;;;;;;;;;;;;;;;5115583;28;20463;-78
2021/12/24 07:13:51;;;;;;;;;;;;;;;;;;5115194;28;20416;-77
2021/12/24 07:16:18;;;;;;;;;;;;;;;;;;5115514;28;20045;-78
2021/12/24 07:18:45;;;;;;;;;;;;;;;;;;5115682;28;20048;-78
2021/12/24 07:21:12;;;;;;;;;;;;;;;;;;5115489;28;20378;-78
2021/12/24 07:23:39;;;;;;;;;;;;;;;;;;5115489;28;20008;-78
2021/12/24 07:26:06;;;;;;;;;;;;;;;;;;5115208;28;20070;-78
2021/12/24 07:28:33;;;;;;;;;;;;;;;;;;5114759;28;20488;-78
2021/12/24 07:31:00;;;;;;;;;;;;;;;;;;5115142;28;20022;-77
2021/12/24 07:33:27;;;;;;;;;;;;;;;;;;5114569;28;20021;-77
2021/12/24 07:35:54;;;;;;;;;;;;;;;;;;5115235;28;20000;-78
2021/12/24 07:38:21;;;;;;;;;;;;;;;;;;5115484;28;19995;-78
2021/12/24 07:40:48;;;;;;;;;;;;;;;;;;5115083;28;20032;-78
2021/12/24 07:43:15;;;;;;;;;;;;;;;;;;5115252;28;20040;-79
2021/12/24 07:45:44;;;;;;;;;;;;;;;;;;5115102;28;20068;-79
2021/12/24 07:48:13;;;;;;;;;;;;;;;;;;5114809;28;19969;-78
2021/12/24 07:53:24;;;;;;;;;;;;;;;;;;5114719;28;19943;-78
2021/12/24 07:55:53;;;;;;;;;;;;;;;;;;5114632;28;19994;-78
2021/12/24 07:58:20;;;;;;;;;;;;;;;;;;5114173;28;20389;-78
2021/12/24 08:00:47;;;;;;;;;;;;;;;;;;5114695;28;19948;-78
2021/12/24 08:03:15;;;;;;;;;;;;;;;;;;5114693;28;20024;-80
2021/12/24 08:05:42;;;;;;;;;;;;;;;;;;5114180;28;19968;-78
2021/12/24 08:08:09;;;;;;;;;;;;;;;;;;5114581;28;19958;-79
2021/12/24 08:10:37;;;;;;;;;;;;;;;;;;5114192;28;20042;-78
2021/12/24 08:13:04;;;;;;;;;;;;;;;;;;5115072;27;19965;-78
2021/12/24 08:15:31;;;;;;;;;;;;;;;;;;5113864;28;20481;-78
2021/12/24 08:17:58;;;;;;;;;;;;;;;;;;5113718;28;19957;-78
2021/12/24 08:20:26;;;;;;;;;;;;;;;;;;5114157;28;20032;-78
2021/12/24 08:22:53;;;;;;;;;;;;;;;;;;5113895;28;20057;-78
2021/12/24 08:25:20;;;;;;;;;;;;;;;;;;5113701;28;19968;-80
2021/12/24 08:27:47;;;;;;;;;;;;;;;;;;5114037;28;20469;-79
2021/12/24 08:30:14;;;;;;;;;;;;;;;;;;5113852;28;19998;-77
2021/12/24 08:32:42;;;;;;;;;;;;;;;;;;5114420;28;20042;-78
2021/12/24 08:35:09;;;;;;;;;;;;;;;;;;5113982;28;20406;-79
2021/12/24 08:37:36;;;;;;;;;;;;;;;;;;5114254;28;20047;-78
2021/12/24 08:40:03;;;;;;;;;;;;;;;;;;5113443;28;20040;-78
2021/12/24 08:42:30;;;;;;;;;;;;;;;;;;5114237;28;20047;-78
2021/12/24 08:44:57;;;;;;;;;;;;;;;;;;5113932;28;20064;-79
2021/12/24 08:47:24;;;;;;;;;;;;;;;;;;5113653;28;20388;-78
2021/12/24 08:49:51;;;;;;;;;;;;;;;;;;5112812;28;19950;-78
2021/12/24 08:52:18;;;;;;;;;;;;;;;;;;5113352;28;20387;-78
2021/12/24 08:54:45;;;;;;;;;;;;;;;;;;5113590;28;20042;-78
2021/12/24 08:57:12;;;;;;;;;;;;;;;;;;5114487;27;20000;-78
2021/12/24 08:59:39;;;;;;;;;;;;;;;;;;5114243;28;19994;-78
2021/12/24 09:02:06;;;;;;;;;;;;;;;;;;5113221;28;20047;-79
2021/12/24 09:04:33;;;;;;;;;;;;;;;;;;5113119;28;20053;-79
2021/12/24 09:07:00;;;;;;;;;;;;;;;;;;5113857;28;20041;-79
2021/12/24 09:09:29;;;;;;;;;;;;;;;;;;5117467;28;20042;-78
2021/12/24 09:11:56;;;;;;;;;;;;;;;;;;5117555;28;20027;-79
2021/12/24 09:14:24;;;;;;;;;;;;;;;;;;5117419;28;20052;-78
2021/12/24 09:16:51;;;;;;;;;;;;;;;;;;5116747;28;19977;-79
2021/12/24 09:19:23;;;;;;;;;;;;;;;;;;5114045;28;20003;-79
2021/12/24 09:21:50;;;;;;;;;;;;;;;;;;5117488;28;20335;-79
2021/12/24 09:24:19;;;;;;;;;;;;;;;;;;5117492;28;19994;-79
2021/12/24 09:26:46;;;;;;;;;;;;;;;;;;5117998;28;20000;-80
2021/12/24 09:29:13;;;;;;;;;;;;;;;;;;5117684;28;19959;-80
2021/12/24 09:31:40;;;;;;;;;;;;;;;;;;5117653;28;19962;-80
2021/12/24 09:34:07;;;;;;;;;;;;;;;;;;5117411;28;20046;-80
2021/12/24 09:36:34;;;;;;;;;;;;;;;;;;5116760;28;20041;-78
2021/12/24 09:39:01;;;;;;;;;;;;;;;;;;5117223;28;20388;-79
2021/12/24 09:41:28;;;;;;;;;;;;;;;;;;5116445;28;20382;-80
2021/12/24 09:43:58;;;;;;;;;;;;;;;;;;5117229;28;20045;-79
2021/12/24 09:46:25;;;;;;;;;;;;;;;;;;5102944;28;19971;-79
2021/12/24 09:48:52;;;;;;;;;;;;;;;;;;5117169;28;19958;-80
2021/12/24 09:51:19;;;;;;;;;;;;;;;;;;5117093;28;20043;-79
2021/12/24 09:53:46;;;;;;;;;;;;;;;;;;5117290;28;20039;-79
2021/12/24 09:56:13;;;;;;;;;;;;;;;;;;5117289;28;20470;-79
2021/12/24 09:58:40;;;;;;;;;;;;;;;;;;5117307;28;20052;-79
2021/12/24 10:01:07;;;;;;;;;;;;;;;;;;5117227;28;20416;-79
2021/12/24 10:03:34;;;;;;;;;;;;;;;;;;5117085;28;19966;-79
2021/12/24 10:06:01;;;;;;;;;;;;;;;;;;5116429;28;20064;-79
2021/12/24 10:08:28;;;;;;;;;;;;;;;;;;5116591;28;20000;-78
2021/12/24 10:10:55;;;;;;;;;;;;;;;;;;5117186;28;20055;-79
2021/12/24 10:13:22;;;;;;;;;;;;;;;;;;5116793;28;20078;-78
2021/12/24 10:15:49;;;;;;;;;;;;;;;;;;5117132;28;20003;-78
2021/12/24 10:18:16;;;;;;;;;;;;;;;;;;5116084;28;20487;-79
2021/12/24 10:20:43;;;;;;;;;;;;;;;;;;5115673;28;19996;-79
2021/12/24 10:23:11;;;;;;;;;;;;;;;;;;5116269;28;20047;-79
2021/12/24 10:25:38;;;;;;;;;;;;;;;;;;5116763;28;19974;-79
2021/12/24 10:28:05;;;;;;;;;;;;;;;;;;5116750;28;20046;-79
2021/12/24 10:30:32;;;;;;;;;;;;;;;;;;5116465;28;20480;-79
2021/12/24 10:32:59;;;;;;;;;;;;;;;;;;5116727;28;19958;-79
2021/12/24 10:35:26;;;;;;;;;;;;;;;;;;5116069;28;20365;-79
2021/12/24 10:37:53;;;;;;;;;;;;;;;;;;5115850;27;20066;-79
2021/12/24 10:40:20;;;;;;;;;;;;;;;;;;5116524;28;20025;-79
2021/12/24 10:42:47;;;;;;;;;;;;;;;;;;5116607;28;20018;-79
2021/12/24 10:45:14;;;;;;;;;;;;;;;;;;5116302;28;20490;-79
2021/12/24 10:47:41;;;;;;;;;;;;;;;;;;5116314;28;20003;-79
2021/12/24 10:50:13;;;;;;;;;;;;;;;;;;5116536;28;19963;-80
2021/12/24 10:55:35;;;;;;;;;;;;;;;;;;5116376;28;19958;-78
2021/12/24 10:58:03;;;;;;;;;;;;;;;;;;5115953;28;20403;-79
2021/12/24 11:00:30;;;;;;;;;;;;;;;;;;5115739;28;19953;-78
2021/12/24 11:02:57;;;;;;;;;;;;;;;;;;5114907;28;20416;-79
2021/12/24 11:05:24;;;;;;;;;;;;;;;;;;5115458;28;19969;-79
2021/12/24 11:07:51;;;;;;;;;;;;;;;;;;5115618;28;20386;-79
2021/12/24 11:10:19;;;;;;;;;;;;;;;;;;5115654;28;20036;-79
2021/12/24 11:12:46;;;;;;;;;;;;;;;;;;5114989;28;19984;-79
2021/12/24 11:15:13;;;;;;;;;;;;;;;;;;5115180;28;19994;-79
2021/12/24 11:17:40;;;;;;;;;;;;;;;;;;5115651;28;20047;-79
2021/12/24 11:20:07;;;;;;;;;;;;;;;;;;5115364;28;20493;-79
2021/12/24 11:22:34;;;;;;;;;;;;;;;;;;5115102;28;19971;-78
2021/12/24 11:25:01;;;;;;;;;;;;;;;;;;5115086;28;20049;-77
2021/12/24 11:27:28;;;;;;;;;;;;;;;;;;5115396;28;20036;-78
2021/12/24 11:29:55;;;;;;;;;;;;;;;;;;5115082;28;19956;-78
2021/12/24 11:32:22;;;;;;;;;;;;;;;;;;5115234;28;20039;-78
2021/12/24 11:34:49;;;;;;;;;;;;;;;;;;5115290;28;20364;-78
2021/12/24 11:37:16;;;;;;;;;;;;;;;;;;5114912;28;20046;-78
2021/12/24 11:39:43;;;;;;;;;;;;;;;;;;5113799;28;20043;-78
2021/12/24 11:42:13;;;;;;;;;;;;;;;;;;5115012;28;19990;-78
2021/12/24 11:44:40;;;;;;;;;;;;;;;;;;5115073;28;19959;-79
2021/12/24 11:47:06;;;;;;;;;;;;;;;;;;5114519;28;20051;-78
2021/12/24 11:49:33;;;;;;;;;;;;;;;;;;5115113;28;20046;-79
2021/12/24 11:52:00;;;;;;;;;;;;;;;;;;5114653;28;20045;-78
2021/12/24 11:54:27;;;;;;;;;;;;;;;;;;5111807;27;20037;-79
2021/12/24 11:56:56;;;;;;;;;;;;;;;;;;5114760;28;20044;-78
2021/12/24 11:59:23;;;;;;;;;;;;;;;;;;5114942;28;19949;-79
2021/12/24 12:01:50;;;;;;;;;;;;;;;;;;5114502;28;20379;-79
2021/12/24 12:04:17;;;;;;;;;;;;;;;;;;5113444;28;20047;-80
2021/12/24 12:06:43;;;;;;;;;;;;;;;;;;5113935;28;20420;-80
2021/12/24 12:09:12;;;;;;;;;;;;;;;;;;5114396;28;20060;-80
2021/12/24 12:11:39;;;;;;;;;;;;;;;;;;5114458;28;20009;-80
2021/12/24 12:14:07;;;;;;;;;;;;;;;;;;5114239;28;19960;-79
2021/12/24 12:16:34;;;;;;;;;;;;;;;;;;5114516;28;20044;-80
2021/12/24 12:19:04;;;;;;;;;;;;;;;;;;5114355;28;20041;-80
2021/12/24 12:21:41;;;;;;;;;;;;;;;;;;5113852;28;20207;-80
2021/12/24 12:27:01;;;;;;;;;;;;;;;;;;5114432;28;19977;-79
2021/12/24 12:29:28;;;;;;;;;;;;;;;;;;5114110;28;20356;-79
2021/12/24 12:31:55;;;;;;;;;;;;;;;;;;5113767;28;20039;-80
2021/12/24 12:34:22;;;;;;;;;;;;;;;;;;5112259;28;20362;-80
2021/12/24 12:36:49;;;;;;;;;;;;;;;;;;5114252;27;20053;-80
2021/12/24 12:39:16;;;;;;;;;;;;;;;;;;5113485;28;20386;-80
2021/12/24 12:41:43;;;;;;;;;;;;;;;;;;5113698;28;20046;-80
2021/12/24 12:44:10;;;;;;;;;;;;;;;;;;5113719;28;19996;-80
2021/12/24 12:46:39;;;;;;;;;;;;;;;;;;5113918;28;19979;-80
2021/12/24 12:49:06;;;;;;;;;;;;;;;;;;5113825;28;20050;-80
2021/12/24 12:51:33;;;;;;;;;;;;;;;;;;5113851;28;19959;-81
2021/12/24 12:54:00;;;;;;;;;;;;;;;;;;5113711;28;20046;-80
2021/12/24 12:56:30;;;;;;;;;;;;;;;;;;5113816;28;20046;-80
2021/12/24 12:58:57;;;;;;;;;;;;;;;;;;5113314;28;19962;-80
2021/12/24 13:01:24;;;;;;;;;;;;;;;;;;5113637;28;20402;-79
2021/12/24 13:03:51;;;;;;;;;;;;;;;;;;5113578;28;20011;-79
2021/12/24 13:06:20;;;;;;;;;;;;;;;;;;5113114;28;19968;-80
2021/12/24 13:08:49;;;;;;;;;;;;;;;;;;5112763;28;20020;-80
2021/12/24 13:11:18;;;;;;;;;;;;;;;;;;5112930;28;19961;-80
2021/12/24 13:13:51;;;;;;;;;;;;;;;;;;5110460;28;19976;-79
2021/12/24 13:16:19;;;;;;;;;;;;;;;;;;5113610;28;20052;-80
2021/12/24 13:18:52;;;;;;;;;;;;;;;;;;5113515;28;19952;-80
2021/12/24 13:24:03;;;;;;;;;;;;;;;;;;5113749;28;19947;-80
2021/12/24 13:26:30;;;;;;;;;;;;;;;;;;5113291;28;20055;-80
2021/12/24 13:28:57;;;;;;;;;;;;;;;;;;5113573;28;20041;-80
2021/12/24 13:31:24;;;;;;;;;;;;;;;;;;5113197;28;20434;-79
2021/12/24 13:33:51;;;;;;;;;;;;;;;;;;5113281;28;20064;-79
2021/12/24 13:36:18;;;;;;;;;;;;;;;;;;5109718;28;20032;-79
2021/12/24 13:38:45;;;;;;;;;;;;;;;;;;5112954;28;20047;-80
2021/12/24 13:41:12;;;;;;;;;;;;;;;;;;5113124;28;20019;-80
2021/12/24 13:43:39;;;;;;;;;;;;;;;;;;5113443;28;19999;-80
2021/12/24 13:46:06;;;;;;;;;;;;;;;;;;5112983;28;19924;-80
2021/12/24 13:48:46;;;;;;;;;;;;;;;;;;5113005;28;20072;-80
2021/12/24 13:56:42;;;;;;;;;;;;;;;;;;5096929;28;20311;-80
2021/12/24 13:59:09;;;;;;;;;;;;;;;;;;5110914;28;20043;-80
2021/12/24 14:01:36;;;;;;;;;;;;;;;;;;5121001;27;20462;-80
2021/12/24 14:04:03;;;;;;;;;;;;;;;;;;5123292;27;20062;-79
2021/12/24 14:06:30;;;;;;;;;;;;;;;;;;5103106;28;20391;-78
2021/12/24 14:08:57;;;;;;;;;;;;;;;;;;5116601;28;20043;-83
2021/12/24 14:11:35;;;;;;;;;;;;;;;;;;5116585;28;20065;-83
2021/12/24 14:14:06;;;;;;;;;;;;;;;;;;5115592;28;19958;-84
2021/12/24 14:16:40;;;;;;;;;;;;;;;;;;5116520;28;20060;-83
2021/12/24 14:19:09;;;;;;;;;;;;;;;;;;5106808;28;19956;-83
2021/12/24 14:21:48;;;;;;;;;;;;;;;;;;5117284;28;19961;-88
2021/12/24 14:24:15;;;;;;;;;;;;;;;;;;5122125;27;19992;-88
2021/12/24 14:26:42;;;;;;;;;;;;;;;;;;5126879;28;20021;-88
2021/12/24 14:29:09;;;;;;;;;;;;;;;;;;5128494;28;19953;-89
2021/12/24 14:31:36;;;;;;;;;;;;;;;;;;5129025;28;19931;-90
2021/12/24 14:34:03;;;;;;;;;;;;;;;;;;5119005;28;20055;-85
2021/12/24 14:36:30;;;;;;;;;;;;;;;;;;5116361;28;20417;-87
2021/12/24 14:38:57;;;;;;;;;;;;;;;;;;5116086;28;20005;-84
2021/12/24 14:41:24;;;;;;;;;;;;;;;;;;5115966;28;20036;-84
2021/12/24 14:43:51;;;;;;;;;;;;;;;;;;5116300;28;19960;-84
2021/12/24 14:46:18;;;;;;;;;;;;;;;;;;5116031;28;19974;-84
2021/12/24 14:48:45;;;;;;;;;;;;;;;;;;5116454;28;19992;-84
2021/12/24 14:51:12;;;;;;;;;;;;;;;;;;5115727;28;20008;-83
2021/12/24 14:53:39;;;;;;;;;;;;;;;;;;5116321;28;20024;-84
2021/12/24 14:56:06;;;;;;;;;;;;;;;;;;5115636;28;20329;-84
2021/12/24 14:58:33;;;;;;;;;;;;;;;;;;5116063;28;20043;-83
2021/12/24 15:01:00;;;;;;;;;;;;;;;;;;5116099;28;20346;-84
2021/12/24 15:03:27;;;;;;;;;;;;;;;;;;5116221;28;20009;-84
2021/12/24 15:05:54;;;;;;;;;;;;;;;;;;5114000;28;20487;-84
2021/12/24 15:08:21;;;;;;;;;;;;;;;;;;5116865;28;19960;-84
2021/12/24 15:10:48;;;;;;;;;;;;;;;;;;5115853;28;20001;-84
2021/12/24 15:13:19;;;;;;;;;;;;;;;;;;5115776;28;20026;-84
2021/12/24 15:15:46;;;;;;;;;;;;;;;;;;5115868;28;19994;-84
2021/12/24 15:18:14;;;;;;;;;;;;;;;;;;5115878;28;19960;-84
2021/12/24 15:20:43;;;;;;;;;;;;;;;;;;5115105;28;19988;-84
2021/12/24 15:23:10;;;;;;;;;;;;;;;;;;5115870;28;19967;-84
2021/12/24 15:25:37;;;;;;;;;;;;;;;;;;5115312;28;19955;-83
2021/12/24 15:28:08;;;;;;;;;;;;;;;;;;5115004;28;20033;-84
2021/12/24 15:30:35;;;;;;;;;;;;;;;;;;5115254;28;19947;-84
2021/12/24 15:33:02;;;;;;;;;;;;;;;;;;5115598;28;20020;-83
2021/12/24 15:35:29;;;;;;;;;;;;;;;;;;5115358;28;20006;-83
2021/12/24 15:37:58;;;;;;;;;;;;;;;;;;5115433;28;20059;-84
2021/12/24 15:40:25;;;;;;;;;;;;;;;;;;5114992;28;20415;-83
2021/12/24 15:42:53;;;;;;;;;;;;;;;;;;5115430;28;20057;-84
2021/12/24 15:45:24;;;;;;;;;;;;;;;;;;5114949;28;19957;-82
2021/12/24 15:47:51;;;;;;;;;;;;;;;;;;5115064;28;19979;-84
2021/12/24 15:50:18;;;;;;;;;;;;;;;;;;5115209;28;20051;-83
2021/12/24 15:52:45;;;;;;;;;;;;;;;;;;5114942;28;20012;-84
2021/12/24 15:55:12;;;;;;;;;;;;;;;;;;5114513;28;19988;-83
2021/12/24 15:57:39;;;;;;;;;;;;;;;;;;5114742;28;19996;-84
2021/12/24 16:00:06;;;;;;;;;;;;;;;;;;5114224;28;20447;-83
2021/12/24 16:02:33;;;;;;;;;;;;;;;;;;5114881;28;20002;-84
2021/12/24 16:05:00;;;;;;;;;;;;;;;;;;5114485;28;20048;-84
2021/12/24 16:07:27;;;;;;;;;;;;;;;;;;5114916;28;20060;-84
2021/12/24 16:09:54;;;;;;;;;;;;;;;;;;5114411;28;20056;-84
2021/12/24 16:12:22;;;;;;;;;;;;;;;;;;5114669;28;20082;-83
2021/12/24 16:14:49;;;;;;;;;;;;;;;;;;5114369;28;19951;-84
2021/12/24 16:17:16;;;;;;;;;;;;;;;;;;5114538;28;19958;-84
2021/12/24 16:19:43;;;;;;;;;;;;;;;;;;5114230;28;19981;-89
2021/12/24 16:22:10;;;;;;;;;;;;;;;;;;5113846;28;19958;-83
2021/12/24 16:24:37;;;;;;;;;;;;;;;;;;5114303;28;20062;-83
2021/12/24 16:27:04;;;;;;;;;;;;;;;;;;5114057;28;20368;-83
2021/12/24 16:29:31;;;;;;;;;;;;;;;;;;5114408;28;20007;-84
2021/12/24 16:31:58;;;;;;;;;;;;;;;;;;5114045;28;20046;-83
2021/12/24 16:34:25;;;;;;;;;;;;;;;;;;5114328;28;20057;-84
2021/12/24 16:36:52;;;;;;;;;;;;;;;;;;5113695;28;20043;-83
2021/12/24 16:39:19;;;;;;;;;;;;;;;;;;5113834;28;20061;-83
2021/12/24 16:41:46;;;;;;;;;;;;;;;;;;5113480;28;20348;-84
2021/12/24 16:44:13;;;;;;;;;;;;;;;;;;5113667;28;19962;-84
2021/12/24 16:46:40;;;;;;;;;;;;;;;;;;5113164;28;20444;-84
2021/12/24 16:49:07;;;;;;;;;;;;;;;;;;5113965;28;19976;-84
2021/12/24 16:51:34;;;;;;;;;;;;;;;;;;5113315;28;20010;-84
2021/12/24 16:54:01;;;;;;;;;;;;;;;;;;5114131;28;20495;-85
2021/12/24 16:56:28;;;;;;;;;;;;;;;;;;5113005;28;20058;-84
2021/12/24 16:58:55;;;;;;;;;;;;;;;;;;5114091;28;20013;-84
2021/12/24 17:01:22;;;;;;;;;;;;;;;;;;5113069;28;20039;-86
2021/12/24 17:03:51;;;;;;;;;;;;;;;;;;5114002;28;20002;-85
2021/12/24 17:06:18;;;;;;;;;;;;;;;;;;5113004;28;20053;-84
2021/12/24 17:08:46;;;;;;;;;;;;;;;;;;5113862;28;20499;-83
2021/12/24 17:11:13;;;;;;;;;;;;;;;;;;5113459;28;19963;-84
2021/12/24 17:13:40;;;;;;;;;;;;;;;;;;5113620;28;20530;-84
2021/12/24 17:16:07;;;;;;;;;;;;;;;;;;5113129;28;19959;-83
2021/12/24 17:18:34;;;;;;;;;;;;;;;;;;5113909;28;20046;-84
2021/12/24 17:21:01;;;;;;;;;;;;;;;;;;5112690;28;19956;-84
2021/12/24 17:23:28;;;;;;;;;;;;;;;;;;5113133;28;20011;-83
2021/12/24 17:25:55;;;;;;;;;;;;;;;;;;5113494;28;19962;-84
2021/12/24 17:28:22;;;;;;;;;;;;;;;;;;5114977;28;20023;-84
2021/12/24 17:30:50;;;;;;;;;;;;;;;;;;5117604;28;19955;-83
2021/12/24 17:33:18;;;;;;;;;;;;;;;;;;5117678;28;20397;-84
2021/12/24 17:35:45;;;;;;;;;;;;;;;;;;5116640;28;19961;-84
2021/12/24 17:38:12;;;;;;;;;;;;;;;;;;5117309;28;20043;-84
2021/12/24 17:40:39;;;;;;;;;;;;;;;;;;5117143;28;19984;-84
2021/12/24 17:43:11;;;;;;;;;;;;;;;;;;5116866;28;19961;-83
2021/12/24 17:45:38;;;;;;;;;;;;;;;;;;5116648;28;19965;-83
2021/12/24 17:48:05;;;;;;;;;;;;;;;;;;5117582;28;20077;-84
2021/12/24 17:50:32;;;;;;;;;;;;;;;;;;5116762;28;20364;-83
2021/12/24 17:52:59;;;;;;;;;;;;;;;;;;5116762;28;19996;-84
2021/12/24 17:55:26;;;;;;;;;;;;;;;;;;5117487;28;20060;-84
2021/12/24 17:57:53;;;;;;;;;;;;;;;;;;5116252;28;20426;-83
2021/12/24 18:00:20;;;;;;;;;;;;;;;;;;5117192;28;20035;-82
2021/12/24 18:02:47;;;;;;;;;;;;;;;;;;5116677;28;19964;-83
2021/12/24 18:05:16;;;;;;;;;;;;;;;;;;5117131;28;20405;-83
2021/12/24 18:07:43;;;;;;;;;;;;;;;;;;5116491;28;19964;-84
2021/12/24 18:10:10;;;;;;;;;;;;;;;;;;5116879;28;19955;-83
2021/12/24 18:12:37;;;;;;;;;;;;;;;;;;5116647;28;20061;-83
2021/12/24 18:15:04;;;;;;;;;;;;;;;;;;5116579;28;20011;-83
2021/12/24 18:17:31;;;;;;;;;;;;;;;;;;5116614;28;19961;-83
2021/12/24 18:19:58;;;;;;;;;;;;;;;;;;5116720;28;20340;-83
2021/12/24 18:22:25;;;;;;;;;;;;;;;;;;5116505;28;20002;-84
2021/12/24 18:24:52;;;;;;;;;;;;;;;;;;5117128;28;20047;-83
2021/12/24 18:27:19;;;;;;;;;;;;;;;;;;5116698;28;20465;-82
2021/12/24 18:29:46;;;;;;;;;;;;;;;;;;5117691;28;19956;-83